ADDS METAR Data INFO
IDs: Format: Raw Decoded Include TAF

Data at: 2052 UTC 24 Jun 2018

KTKI 241953Z 18020G31KT 10SM CLR 34/21 A2979 RMK AO2 PK WND 15031/1946 SLP078 T03440206
KTKI 241853Z 19019G26KT 10SM CLR 34/21 A2983 RMK AO2 PK WND 18028/1841 SLP091 T03390206
KTKI 241753Z 19017KT 10SM FEW044 34/21 A2985 RMK AO2 SLP099 T03390211 10339 20272 58011
KTKI 241653Z 16013KT 10SM BKN038 31/22 A2987 RMK AO2 SLP109 T03060222
KTKI 241553Z 19015KT 10SM FEW030 BKN037 31/22 A2988 RMK AO2 SLP110 T03060222
KTKI 241453Z 17013KT 10SM CLR 29/22 A2988 RMK AO2 SLP111 T02890222 50022
KTKI 241353Z 18010KT 10SM BKN039 OVC047 28/22 A2989 RMK AO2 PRESFR SLP113 T02780217
KTKI 241253Z 19011KT 10SM BKN039 BKN047 28/22 A2986 RMK AO2 SLP103 T02780217
KTKI 241153Z 19011KT 10SM OVC038 27/22 A2981 RMK AO2 SLP088 T02720217 10289 20267 53038
KTKI 241053Z 17015G22KT 10SM BKN030 27/22 A2976 RMK AO2 SLP070 T02670217
KTKI 241000Z AUTO 16014KT 10SM BKN031 27/22 A2974 RMK AO2 T02720222
KTKI 240953Z AUTO 16015KT 10SM BKN029 BKN035 27/22 A2974 RMK AO2 PK WND 16027/0854 SLP063 T02720222
KTKI 240853Z AUTO 16016G27KT 10SM BKN027 27/22 A2970 RMK AO2 PK WND 15030/0755 SLP048 T02720222 58030
KTKI 240833Z AUTO 17016G27KT 10SM BKN027 28/22 A2973 RMK AO2 PK WND 15030/0755 T02780222
KTKI 240753Z AUTO 16017G26KT 10SM CLR 28/22 A2973 RMK AO2 PK WND 16034/0727 SLP058 T02780222
KTKI 240653Z AUTO 17020G28KT 10SM CLR 29/22 A2977 RMK AO2 PK WND 18030/0634 SLP071 T02890217
KTKI 240553Z AUTO 18020G26KT 10SM CLR 29/22 A2979 RMK AO2 PK WND 16026/0549 SLP080 T02940222 10322 20289 403440228 50012
KTKI 240453Z AUTO 17012KT 10SM CLR 29/22 A2980 RMK AO2 SLP083 T02890222
KTKI 240353Z AUTO 15010KT 10SM CLR 29/22 A2979 RMK AO2 SLP083 T02940217
KTKI 240253Z AUTO 14009KT 10SM CLR 30/21 A2975 RMK AO2 SLP070 T03000211 51002
KTKI 240153Z 14009KT 10SM OVC075 31/21 A2975 RMK AO2 SLP069 T03060211
KTKI 240053Z 13008KT 10SM OVC070 32/21 A2976 RMK AO2 SLP071 T03170211
KTKI 232353Z 14014KT 10SM CLR 32/21 A2975 RMK AO2 SLP067 T03220211 10344 20300 56007
KTKI 232253Z 15013KT 10SM FEW065 34/22 A2975 RMK AO2 SLP067 T03390222
KTKI 232153Z 16015G20KT 10SM FEW055 34/22 A2976 RMK AO2 SLP071 T03390217
KTKI 232053Z 15015G23KT 10SM SCT060 33/22 A2977 RMK AO2 SLP073 T03330222 56025
KTKI 231953Z 14014G20KT 10SM FEW040 33/23 A2978 RMK AO2 SLP076 T03330233
KTKI 231853Z 15013KT 10SM FEW033 FEW044 32/24 A2981 RMK AO2 SLP087 T03220239
KTKI 231753Z 13012G16KT 10SM CLR 31/24 A2985 RMK AO2 SLP099 T03060239 10306 20228 58019
KTKI 231704Z VRB06KT 10SM SCT020 28/23 A2988 RMK AO2 T02780228
KTKI 231653Z 12009KT 10SM BKN019 28/22 A2988 RMK AO2 SLP111 T02780222
KTKI 231553Z 09010KT 10SM OVC018 25/20 A2990 RMK AO2 SLP118 T02500200
KTKI 231453Z 07010G16KT 10SM OVC019 23/20 A2990 RMK AO2 SLP120 T02330200 50022
KTKI 231353Z 03012KT 10SM OVC020 23/19 A2991 RMK AO2 LTG DSNT NE SLP121 T02330194
KTKI 231253Z 04006KT 10SM OVC016 24/19 A2988 RMK AO2 LTG DSNT N AND NE SLP113 T02390189
KTKI 231153Z 07007KT 10SM OVC025 24/19 A2984 RMK AO2 SLP097 T02390189 10294 20233 55001
KTKI 231142Z 07006KT 10SM BKN025 23/19 A2983 RMK AO2 T02330189
KTKI 231053Z 12006KT 10SM CLR 23/18 A2980 RMK AO2 SLP086 T02330183
KTKI 230953Z AUTO 08006KT 10SM OVC045 24/19 A2983 RMK AO2 SLP094 T02390189
KTKI 230853Z AUTO 03010G24KT 10SM OVC044 25/19 A2984 RMK AO2 PK WND 36027/0758 SLP096 T02500189 51037